Time;durP1;ratioP1;P1;durP2;ratioP2;P2;SDS_P1;SDS_P2;PMS_P1;PMS_P2;Temp;Humidity;BMP_temperature;BMP_pressure;BME280_temperature;BME280_humidity;BME280_pressure;Samples;Min_cycle;Max_cycle;Signal;HPM_P1;HPM_P2
2024/01/05 00:00:57;;;;;;;7.93;2.47;;;;;;;6.86;100.00;99829.16;4996281;28;20026;-86
2024/01/05 00:03:23;;;;;;;8.43;2.47;;;;;;;6.79;100.00;99822.38;4996293;28;20026;-86
2024/01/05 00:05:48;;;;;;;7.07;2.15;;;;;;;6.79;100.00;99817.22;4995393;28;20033;-86
2024/01/05 00:08:13;;;;;;;7.10;2.60;;;;;;;6.76;100.00;99806.94;4996028;28;20050;-86
2024/01/05 00:10:38;;;;;;;8.40;2.20;;;;;;;6.73;100.00;99804.44;4983707;28;20048;-86
2024/01/05 00:13:06;;;;;;;7.45;2.40;;;;;;;6.75;100.00;99811.25;4975843;28;20077;-86
2024/01/05 00:15:32;;;;;;;6.15;2.30;;;;;;;6.75;100.00;99808.69;4975933;28;20411;-85
2024/01/05 00:17:57;;;;;;;5.50;2.10;;;;;;;6.76;100.00;99804.34;4976634;28;20022;-86
2024/01/05 00:20:25;;;;;;;4.55;2.10;;;;;;;6.76;100.00;99812.09;4981775;28;20027;-86
2024/01/05 00:22:53;;;;;;;8.20;2.70;;;;;;;6.77;100.00;99808.63;4995612;28;20018;-86
2024/01/05 00:25:21;;;;;;;6.72;2.40;;;;;;;6.79;100.00;99812.06;4996131;28;20022;-87
2024/01/05 00:27:47;;;;;;;4.95;2.05;;;;;;;6.84;100.00;99810.25;4993669;28;20030;-86
2024/01/05 00:30:13;;;;;;;4.00;1.92;;;;;;;6.82;100.00;99809.44;4995853;28;20031;-86
2024/01/05 00:32:41;;;;;;;6.73;2.37;;;;;;;6.82;100.00;99795.66;4995306;28;20053;-86
2024/01/05 00:35:07;;;;;;;5.57;2.17;;;;;;;6.88;100.00;99803.31;4995072;28;20030;-85
2024/01/05 00:37:34;;;;;;;7.97;2.60;;;;;;;6.89;100.00;99792.13;4995292;28;20030;-86
2024/01/05 00:39:59;;;;;;;7.78;2.30;;;;;;;6.97;100.00;99787.69;4995685;28;20030;-86
2024/01/05 00:42:25;;;;;;;7.40;2.30;;;;;;;6.92;100.00;99790.34;4994770;28;20029;-86
2024/01/05 00:44:50;;;;;;;6.17;2.13;;;;;;;6.92;100.00;99787.75;4995159;28;20026;-87
2024/01/05 00:47:16;;;;;;;4.80;2.10;;;;;;;6.94;100.00;99783.44;4995536;28;20046;-86
2024/01/05 00:49:41;;;;;;;3.87;2.27;;;;;;;6.95;100.00;99781.69;4993756;28;20490;-86
2024/01/05 00:52:06;;;;;;;9.77;2.10;;;;;;;6.95;100.00;99779.97;4976031;28;20026;-86
2024/01/05 00:54:32;;;;;;;5.18;2.42;;;;;;;6.95;100.00;99781.69;4975344;28;20034;-86
2024/01/05 00:56:57;;;;;;;5.80;2.13;;;;;;;7.00;100.00;99773.88;4974999;28;20058;-86
2024/01/05 00:59:22;;;;;;;5.70;2.07;;;;;;;6.98;100.00;99770.50;4975871;28;20049;-86
2024/01/05 01:01:48;;;;;;;4.27;1.70;;;;;;;7.01;100.00;99773.00;4974932;28;20018;-85
2024/01/05 01:04:17;;;;;;;9.07;2.77;;;;;;;7.02;100.00;99773.00;4975323;28;20035;-86
2024/01/05 01:06:42;;;;;;;8.15;2.10;;;;;;;7.06;100.00;99771.19;4975418;28;20527;-86
2024/01/05 01:09:07;;;;;;;6.13;2.30;;;;;;;7.01;100.00;99755.81;4974809;28;20055;-85
2024/01/05 01:11:33;;;;;;;4.10;2.07;;;;;;;7.04;100.00;99760.88;4975336;28;20035;-86
2024/01/05 01:13:58;;;;;;;5.80;2.37;;;;;;;7.07;100.00;99766.00;4975529;28;20023;-86
2024/01/05 01:16:23;;;;;;;4.70;1.97;;;;;;;7.04;100.00;99750.56;4974471;28;20019;-86
2024/01/05 01:18:49;;;;;;;6.53;2.07;;;;;;;7.06;100.00;99745.41;4975506;28;20026;-86
2024/01/05 01:21:14;;;;;;;6.70;2.00;;;;;;;7.17;100.00;99745.19;4987934;28;20096;-86
2024/01/05 01:23:39;;;;;;;6.33;1.97;;;;;;;7.13;100.00;99748.72;4993700;28;20037;-86
2024/01/05 01:26:04;;;;;;;9.00;2.27;;;;;;;7.13;100.00;99744.41;4994676;28;20030;-86
2024/01/05 01:28:31;;;;;;;4.97;1.93;;;;;;;7.14;100.00;99742.69;4994325;28;20038;-86
2024/01/05 01:30:56;;;;;;;4.63;1.80;;;;;;;7.13;100.00;99736.66;4993875;28;20035;-85
2024/01/05 01:33:22;;;;;;;3.53;1.90;;;;;;;7.11;100.00;99731.53;4994345;28;20026;-86
2024/01/05 01:35:47;;;;;;;4.28;1.83;;;;;;;7.12;100.00;99729.78;4994276;28;20037;-86
2024/01/05 01:38:12;;;;;;;4.63;1.90;;;;;;;7.12;100.00;99727.22;4993626;28;20103;-85
2024/01/05 01:40:44;;;;;;;5.57;1.73;;;;;;;7.19;100.00;99723.66;4994147;28;20113;-85
2024/01/05 01:43:17;;;;;;;7.25;2.00;;;;;;;7.15;100.00;99724.56;4994696;28;20033;-85
2024/01/05 01:45:42;;;;;;;4.80;1.80;;;;;;;7.14;100.00;99709.97;4993683;28;20030;-85
2024/01/05 01:48:08;;;;;;;3.93;1.70;;;;;;;7.16;100.00;99723.69;4994322;28;20034;-85
2024/01/05 01:50:33;;;;;;;7.13;1.83;;;;;;;7.13;100.00;99710.84;4993680;28;20057;-85
2024/01/05 01:52:59;;;;;;;4.13;1.70;;;;;;;7.12;100.00;99704.00;4993370;28;20108;-85
2024/01/05 01:55:24;;;;;;;4.43;1.87;;;;;;;7.13;100.00;99705.69;4995448;28;20117;-85
2024/01/05 01:57:49;;;;;;;3.85;1.50;;;;;;;7.14;100.00;99704.81;4995316;28;20026;-85
2024/01/05 02:00:15;;;;;;;3.58;1.50;;;;;;;7.13;100.00;99702.28;4986297;28;20460;-86
2024/01/05 02:02:40;;;;;;;7.43;2.10;;;;;;;7.12;100.00;99693.66;4975513;28;20038;-86
2024/01/05 02:05:06;;;;;;;5.80;1.60;;;;;;;7.12;100.00;99693.66;4974279;28;20027;-85
2024/01/05 02:07:31;;;;;;;2.33;1.47;;;;;;;7.13;100.00;99681.63;4973993;28;20019;-85
2024/01/05 02:09:56;;;;;;;2.50;1.70;;;;;;;7.15;100.00;99678.13;4974750;28;20031;-85
2024/01/05 02:12:22;;;;;;;3.23;1.70;;;;;;;7.13;100.00;99671.31;4974088;28;20110;-85
2024/01/05 02:14:47;;;;;;;3.57;1.47;;;;;;;7.08;100.00;99659.34;4974925;28;20110;-85
2024/01/05 02:17:32;;;;;;;4.17;1.63;;;;;;;7.11;100.00;99658.41;4974964;28;20029;-85
2024/01/05 02:19:58;;;;;;;3.75;1.60;;;;;;;7.11;100.00;99648.09;4976182;28;20022;-85
2024/01/05 02:22:28;;;;;;;6.63;2.23;;;;;;;7.06;100.00;99647.34;4993797;28;20382;-85
2024/01/05 02:24:53;;;;;;;5.18;2.30;;;;;;;7.07;100.00;99643.91;4993808;28;20371;-85
2024/01/05 02:27:18;;;;;;;5.73;1.90;;;;;;;7.08;100.00;99640.44;4993297;28;20033;-85
2024/01/05 02:29:44;;;;;;;8.80;2.20;;;;;;;7.09;100.00;99642.16;4994235;28;20088;-86
2024/01/05 02:32:12;;;;;;;4.17;1.73;;;;;;;7.09;100.00;99642.16;4994274;28;20524;-85
2024/01/05 02:34:37;;;;;;;5.82;2.05;;;;;;;7.04;100.00;99631.06;4992675;28;20037;-85
2024/01/05 02:37:02;;;;;;;4.63;1.90;;;;;;;7.02;100.00;99632.81;4994000;28;20387;-85
2024/01/05 02:39:28;;;;;;;4.73;1.80;;;;;;;6.93;100.00;99626.97;4993630;28;20026;-86
2024/01/05 02:41:53;;;;;;;4.00;1.87;;;;;;;6.96;100.00;99623.47;4992860;28;20037;-85
2024/01/05 02:44:18;;;;;;;6.97;1.80;;;;;;;6.94;100.00;99626.09;4993794;28;20046;-86
2024/01/05 02:46:49;;;;;;;5.57;1.80;;;;;;;6.86;100.00;99607.34;4993241;28;20038;-85
2024/01/05 02:49:14;;;;;;;4.30;1.73;;;;;;;6.93;100.00;99619.22;4992864;28;20383;-86
2024/01/05 02:51:39;;;;;;;5.63;1.73;;;;;;;6.90;100.00;99611.53;4978747;28;20038;-85
2024/01/05 02:54:05;;;;;;;3.13;1.87;;;;;;;6.89;100.00;99606.44;4977863;28;20057;-85
2024/01/05 02:56:33;;;;;;;2.37;1.50;;;;;;;6.89;100.00;99604.69;4977566;28;20027;-85
2024/01/05 02:58:59;;;;;;;2.25;1.58;;;;;;;6.90;100.00;99606.38;4978210;28;20037;-85
2024/01/05 03:01:25;;;;;;;2.37;1.27;;;;;;;6.93;100.00;99596.00;4977125;28;20348;-85
2024/01/05 03:03:50;;;;;;;3.47;1.70;;;;;;;6.88;100.00;99594.41;4977618;28;20191;-86
2024/01/05 03:06:19;;;;;;;4.28;1.75;;;;;;;6.88;100.00;99600.41;4978922;28;20046;-85
2024/01/05 03:08:44;;;;;;;3.72;1.20;;;;;;;6.94;100.00;99600.28;4976722;28;20049;-85
2024/01/05 03:11:10;;;;;;;7.73;2.00;;;;;;;6.99;100.00;99596.75;4977711;28;20030;-85
2024/01/05 03:13:36;;;;;;;5.18;1.88;;;;;;;6.87;100.00;99583.22;4977983;28;20517;-85
2024/01/05 03:16:04;;;;;;;2.57;2.00;;;;;;;6.92;100.00;99589.16;4977437;28;20054;-86
2024/01/05 03:18:29;;;;;;;4.60;1.80;;;;;;;6.93;100.00;99580.53;4977855;28;20033;-86
2024/01/05 03:20:55;;;;;;;6.07;1.80;;;;;;;6.93;100.00;99577.09;4978385;28;20034;-86
2024/01/05 03:23:20;;;;;;;5.07;1.80;;;;;;;6.93;100.00;99579.66;4977345;28;20027;-85
2024/01/05 03:25:45;;;;;;;5.78;1.70;;;;;;;7.00;100.00;99567.50;4976876;28;20050;-85
2024/01/05 03:28:12;;;;;;;3.13;1.53;;;;;;;6.90;100.00;99562.53;4977821;28;20047;-84
2024/01/05 03:30:38;;;;;;;4.72;1.67;;;;;;;6.90;100.00;99559.97;4976602;28;20030;-85
2024/01/05 03:33:03;;;;;;;4.97;1.75;;;;;;;6.90;100.00;99559.97;4977619;28;20484;-85
2024/01/05 03:35:29;;;;;;;8.43;2.20;;;;;;;6.91;100.00;99561.66;4977344;28;20023;-85
2024/01/05 03:37:55;;;;;;;6.90;2.23;;;;;;;6.91;100.00;99553.91;4976618;28;20027;-85
2024/01/05 03:40:23;;;;;;;8.03;2.10;;;;;;;6.94;100.00;99547.84;4977833;28;20115;-85
2024/01/05 03:42:51;;;;;;;5.72;2.00;;;;;;;6.98;100.00;99546.06;4977082;28;20029;-85
2024/01/05 03:45:16;;;;;;;5.43;2.00;;;;;;;6.97;100.00;99541.78;4976921;28;20038;-85
2024/01/05 03:47:42;;;;;;;7.83;2.10;;;;;;;6.97;100.00;99544.38;4977394;28;20031;-85
2024/01/05 03:50:07;;;;;;;3.90;1.80;;;;;;;6.95;100.00;99529.78;4985708;28;20471;-85
2024/01/05 03:52:33;;;;;;;3.33;1.63;;;;;;;6.92;100.00;99524.66;4995892;28;20072;-85
2024/01/05 03:54:58;;;;;;;2.63;1.60;;;;;;;7.01;100.00;99530.50;4984950;28;20043;-85
2024/01/05 03:57:23;;;;;;;3.10;1.67;;;;;;;6.91;100.00;99512.66;4976855;28;20023;-85
2024/01/05 03:59:50;;;;;;;5.43;2.10;;;;;;;6.97;100.00;99516.00;4976028;28;20109;-85
2024/01/05 04:02:15;;;;;;;5.78;2.10;;;;;;;6.93;100.00;99510.91;4976552;28;20105;-85
2024/01/05 04:04:41;;;;;;;5.57;1.80;;;;;;;6.98;100.00;99509.97;4975998;28;20097;-84
2024/01/05 04:07:06;;;;;;;5.20;2.03;;;;;;;6.93;100.00;99513.47;4976515;28;20050;-85
2024/01/05 04:09:31;;;;;;;6.13;1.75;;;;;;;6.93;100.00;99510.91;4976089;28;20562;-85
2024/01/05 04:11:57;;;;;;;2.80;1.40;;;;;;;6.92;100.00;99501.47;4975942;28;20029;-85
2024/01/05 04:14:23;;;;;;;4.10;1.70;;;;;;;6.91;100.00;99496.34;4976690;28;20027;-85
2024/01/05 04:16:49;;;;;;;3.97;1.67;;;;;;;6.86;100.00;99493.88;4976863;28;20096;-85
2024/01/05 04:19:14;;;;;;;3.73;1.57;;;;;;;6.94;100.00;99489.38;4976838;28;20102;-85
2024/01/05 04:21:39;;;;;;;3.87;1.57;;;;;;;6.90;100.00;99481.75;4978709;28;20077;-85
2024/01/05 04:24:05;;;;;;;6.10;2.00;;;;;;;6.98;100.00;99481.59;4996649;28;20022;-87
2024/01/05 04:26:30;;;;;;;4.18;1.80;;;;;;;6.87;100.00;99469.75;4995589;28;20101;-85
2024/01/05 04:28:55;;;;;;;5.80;1.57;;;;;;;6.95;100.00;99472.16;4995696;28;20069;-85
2024/01/05 04:31:21;;;;;;;3.27;1.40;;;;;;;6.90;100.00;99464.53;4995696;28;20050;-85
2024/01/05 04:33:46;;;;;;;3.83;1.52;;;;;;;6.87;100.00;99468.91;4994700;28;20078;-85
2024/01/05 04:36:15;;;;;;;4.03;1.60;;;;;;;6.86;100.00;99457.75;4995444;28;20030;-85
2024/01/05 04:38:43;;;;;;;3.75;1.67;;;;;;;6.86;100.00;99457.75;4995552;28;20117;-85
2024/01/05 04:41:08;;;;;;;5.07;1.67;;;;;;;6.84;100.00;99449.19;4994962;28;20030;-85
2024/01/05 04:43:34;;;;;;;4.17;1.53;;;;;;;6.89;100.00;99447.34;4995309;28;20023;-85
2024/01/05 04:46:00;;;;;;;6.45;2.10;;;;;;;6.89;100.00;99439.63;4995817;28;20418;-85
2024/01/05 04:48:26;;;;;;;2.95;1.80;;;;;;;6.86;100.00;99444.00;4995333;28;20026;-85
2024/01/05 04:50:51;;;;;;;6.80;2.00;;;;;;;6.85;100.00;99440.59;4980460;28;20599;-85
2024/01/05 04:53:17;;;;;;;6.10;2.10;;;;;;;6.84;100.00;99441.47;4976431;28;20041;-85
2024/01/05 04:55:42;;;;;;;6.53;2.00;;;;;;;6.83;100.00;99432.03;4975358;28;20027;-85
2024/01/05 04:58:08;;;;;;;7.40;2.30;;;;;;;6.88;100.00;99429.34;4976128;28;20022;-85
2024/01/05 05:00:33;;;;;;;5.38;1.90;;;;;;;6.82;100.00;99429.47;4976146;28;20387;-84
2024/01/05 05:02:58;;;;;;;4.57;1.80;;;;;;;6.81;100.00;99418.31;4975065;28;20085;-85
2024/01/05 05:05:24;;;;;;;7.97;2.10;;;;;;;6.92;100.00;99423.25;4975895;28;20467;-86
2024/01/05 05:07:49;;;;;;;3.40;1.80;;;;;;;6.88;100.00;99416.44;4975756;28;20127;-85
2024/01/05 05:10:15;;;;;;;6.10;2.03;;;;;;;6.88;100.00;99413.88;4990388;23;20566;-85
2024/01/05 05:12:40;;;;;;;2.43;1.83;;;;;;;6.87;100.00;99407.00;4975657;28;20061;-85
2024/01/05 05:15:07;;;;;;;6.10;1.75;;;;;;;6.91;100.00;99409.47;4974825;28;20085;-84
2024/01/05 05:17:32;;;;;;;5.80;1.80;;;;;;;6.89;100.00;99413.00;4975451;28;20102;-85
2024/01/05 05:19:58;;;;;;;5.23;1.70;;;;;;;6.86;100.00;99413.91;4975909;28;20129;-85
2024/01/05 05:22:23;;;;;;;6.07;1.90;;;;;;;7.00;100.00;99408.44;4975033;28;20030;-85
2024/01/05 05:24:50;;;;;;;7.75;1.80;;;;;;;6.97;100.00;99412.81;4975272;28;20113;-85
2024/01/05 05:27:18;;;;;;;5.47;1.77;;;;;;;6.84;100.00;99410.53;4975303;28;20082;-85
2024/01/05 05:29:46;;;;;;;5.40;1.90;;;;;;;6.92;100.00;99411.19;4974128;28;20019;-85
2024/01/05 05:32:14;;;;;;;5.93;1.60;;;;;;;6.82;100.00;99399.38;4975010;28;20030;-85
2024/01/05 05:34:41;;;;;;;5.85;1.70;;;;;;;6.86;100.00;99406.19;4974747;28;20654;-84
2024/01/05 05:37:06;;;;;;;3.75;1.52;;;;;;;6.99;100.00;99411.03;4974521;28;20041;-85
2024/01/05 05:39:31;;;;;;;4.53;1.50;;;;;;;7.01;100.00;99406.69;4974893;28;20018;-85
2024/01/05 05:41:57;;;;;;;7.20;2.00;;;;;;;7.15;100.00;99401.22;4975087;28;20134;-85
2024/01/05 05:44:22;;;;;;;5.45;1.73;;;;;;;7.03;100.00;99404.91;4974032;28;20026;-85
2024/01/05 05:46:47;;;;;;;4.22;1.40;;;;;;;7.01;100.00;99406.69;4974678;28;20105;-85
2024/01/05 05:49:12;;;;;;;4.70;1.60;;;;;;;7.04;100.00;99410.03;4975320;28;20518;-86
2024/01/05 05:51:38;;;;;;;3.93;1.40;;;;;;;7.08;100.00;99409.09;4974025;28;20085;-85
2024/01/05 05:54:03;;;;;;;5.18;1.40;;;;;;;7.18;100.00;99401.13;4974672;28;20034;-86
2024/01/05 05:56:29;;;;;;;4.23;1.50;;;;;;;7.21;100.00;99401.06;4975436;28;20124;-86
2024/01/05 05:58:55;;;;;;;2.85;1.45;;;;;;;7.14;100.00;99404.69;4973980;28;20489;-84
2024/01/05 06:01:20;;;;;;;4.70;1.73;;;;;;;7.18;100.00;99408.84;4975209;28;20114;-85
2024/01/05 06:03:45;;;;;;;4.47;1.27;;;;;;;7.19;100.00;99414.00;4974545;28;20093;-85
2024/01/05 06:06:22;;;;;;;2.17;0.90;;;;;;;7.16;100.00;99411.50;4974027;28;20074;-85
2024/01/05 06:08:48;;;;;;;2.85;1.10;;;;;;;7.21;100.00;99419.13;4974976;28;20023;-85
2024/01/05 06:11:16;;;;;;;1.00;0.87;;;;;;;7.17;100.00;99418.34;4974304;28;20045;-86
2024/01/05 06:13:41;;;;;;;2.15;0.80;;;;;;;7.20;100.00;99426.03;4973977;28;20034;-86
2024/01/05 06:16:07;;;;;;;1.00;0.70;;;;;;;7.16;96.28;99420.94;4974640;28;20027;-85
2024/01/05 06:18:32;;;;;;;1.57;0.53;;;;;;;7.15;100.00;99414.94;4974303;28;20157;-85
2024/01/05 06:20:59;;;;;;;1.03;0.57;;;;;;;7.21;100.00;99421.69;4974849;28;20042;-84
2024/01/05 06:23:24;;;;;;;;;;;;;;;7.14;100.00;99427.91;4975206;28;20487;-85
2024/01/05 06:25:50;;;;;;;0.97;0.57;;;;;;;7.16;100.00;99413.19;4974847;28;19918;-85
2024/01/05 06:28:15;;;;;;;1.60;0.50;;;;;;;7.10;97.77;99415.06;4978570;28;20468;-86
2024/01/05 06:30:41;;;;;;;1.67;0.57;;;;;;;7.08;99.94;99416.00;4978711;28;20054;-83
2024/01/05 06:33:09;;;;;;;1.10;0.50;;;;;;;7.09;99.43;99420.28;4985075;23;20054;-86
2024/01/05 06:35:34;;;;;;;0.93;0.40;;;;;;;7.05;99.70;99416.88;4978136;28;20031;-85
2024/01/05 06:37:59;;;;;;;0.40;0.40;;;;;;;7.02;99.13;99422.16;4978986;28;20019;-87
2024/01/05 06:40:30;;;;;;;1.10;0.30;;;;;;;7.08;98.49;99418.56;4977627;28;20030;-85
2024/01/05 06:42:57;;;;;;;0.30;0.30;;;;;;;6.97;97.11;99421.38;4978090;28;20030;-86
2024/01/05 06:45:23;;;;;;;1.45;0.40;;;;;;;7.07;96.63;99424.63;4978812;28;20023;-86
2024/01/05 06:47:48;;;;;;;0.50;0.43;;;;;;;7.04;96.72;99432.41;4977787;28;20034;-86
2024/01/05 06:50:13;;;;;;;2.00;0.50;;;;;;;6.98;97.85;99417.09;4978315;28;20468;-86
2024/01/05 06:52:39;;;;;;;0.40;0.40;;;;;;;6.99;96.95;99426.50;4977840;28;20031;-86
2024/01/05 06:55:04;;;;;;;0.33;0.30;;;;;;;7.07;98.82;99435.75;4977621;28;20026;-86
2024/01/05 06:57:31;;;;;;;0.57;0.40;;;;;;;7.08;98.03;99440.03;4978692;28;20074;-87
2024/01/05 06:59:59;;;;;;;0.98;0.60;;;;;;;7.09;95.60;99434.00;4969011;28;20031;-86
2024/01/05 07:02:25;;;;;;;0.73;0.30;;;;;;;7.06;95.73;99417.75;4958598;28;20032;-86
2024/01/05 07:04:50;;;;;;;0.73;0.50;;;;;;;7.04;97.28;99429.84;4958689;28;20039;-86
2024/01/05 07:07:15;;;;;;;0.50;0.50;;;;;;;6.97;96.83;99421.38;4959033;28;20114;-86
2024/01/05 07:09:41;;;;;;;1.20;0.50;;;;;;;7.02;96.76;99440.19;4963369;28;20392;-85
2024/01/05 07:12:12;;;;;;;0.30;0.30;;;;;;;7.00;95.98;99430.78;4977694;28;20123;-86
2024/01/05 07:14:37;;;;;;;0.50;0.50;;;;;;;6.93;95.82;99422.34;4977091;28;20371;-85
2024/01/05 07:19:30;;;;;;;0.82;0.65;;;;;;;7.08;97.51;99428.88;4989311;28;20042;-85
2024/01/05 07:21:55;;;;;;;0.80;0.40;;;;;;;6.95;97.28;99416.28;4996056;28;20030;-85
2024/01/05 07:24:21;;;;;;;0.40;0.33;;;;;;;7.08;96.37;99405.69;4997091;28;20614;-85
2024/01/05 07:26:46;;;;;;;0.55;0.50;;;;;;;6.97;95.68;99423.13;4997209;28;20026;-86
2024/01/05 07:29:11;;;;;;;0.43;0.30;;;;;;;7.04;96.10;99432.41;4995547;28;20034;-85
2024/01/05 07:31:37;;;;;;;0.80;0.57;;;;;;;7.00;95.96;99425.63;4996543;28;20463;-86
2024/01/05 07:34:05;;;;;;;0.47;0.47;;;;;;;6.94;94.33;99424.03;4996890;28;20438;-86
2024/01/05 07:36:30;;;;;;;1.23;0.43;;;;;;;6.86;96.23;99426.81;4995977;28;20026;-88
2024/01/05 07:38:58;;;;;;;0.50;0.50;;;;;;;6.83;96.89;99431.16;4997081;28;20105;-93
2024/01/05 07:41:25;;;;;;;0.93;0.50;;;;;;;6.86;97.48;99436.25;4983471;28;20035;-86
2024/01/05 07:43:50;;;;;;;0.50;0.40;;;;;;;6.77;97.71;99430.44;4976585;28;20431;-84
2024/01/05 07:46:15;;;;;;;1.42;0.55;;;;;;;6.75;98.50;99441.69;4977170;28;20285;-85
2024/01/05 07:48:40;;;;;;;0.63;0.50;;;;;;;6.78;98.31;99429.56;4976926;28;20046;-84
2024/01/05 07:51:06;;;;;;;0.93;0.60;;;;;;;6.70;99.34;99438.34;4976192;28;20054;-85
2024/01/05 07:53:31;;;;;;;1.17;0.47;;;;;;;6.58;100.00;99445.44;4976863;28;20081;-84
2024/01/05 07:56:00;;;;;;;0.40;0.40;;;;;;;6.55;100.00;99457.56;4976660;28;20042;-85
2024/01/05 07:58:28;;;;;;;0.60;0.60;;;;;;;6.51;100.00;99443.91;4976260;28;20031;-85
2024/01/05 08:00:54;;;;;;;1.40;0.68;;;;;;;6.41;100.00;99448.38;4976528;28;20034;-86
2024/01/05 08:03:19;;;;;;;1.43;0.57;;;;;;;6.38;100.00;99445.88;4976904;28;20027;-88
2024/01/05 08:05:45;;;;;;;2.07;0.53;;;;;;;6.32;100.00;99433.94;4976034;28;20031;-85
2024/01/05 08:08:11;;;;;;;1.02;0.88;;;;;;;6.29;100.00;99431.47;4976556;28;20505;-85
2024/01/05 08:10:36;;;;;;;0.50;0.50;;;;;;;6.24;100.00;99432.44;4990106;28;20129;-85
2024/01/05 08:13:01;;;;;;;0.47;0.40;;;;;;;6.25;100.00;99439.28;4995395;28;20466;-86
2024/01/05 08:15:27;;;;;;;0.35;0.30;;;;;;;6.15;100.00;99433.47;4995935;28;20069;-86
2024/01/05 08:17:53;;;;;;;1.90;0.50;;;;;;;6.09;100.00;99430.97;4995282;28;20438;-85
2024/01/05 08:20:18;;;;;;;0.90;0.43;;;;;;;6.08;100.00;99434.47;4996811;28;20022;-94
2024/01/05 08:22:43;;;;;;;0.93;0.40;;;;;;;6.05;100.00;99429.38;4996382;28;20502;-85
2024/01/05 08:25:09;;;;;;;0.40;0.40;;;;;;;6.08;100.00;99429.31;4995366;28;20489;-87
2024/01/05 08:27:34;;;;;;;0.52;0.32;;;;;;;6.10;100.00;99443.84;4996078;28;20101;-85
2024/01/05 08:29:59;;;;;;;0.50;0.45;;;;;;;6.14;100.00;99453.19;4995801;28;20022;-85
2024/01/05 08:32:25;;;;;;;0.97;0.63;;;;;;;6.13;100.00;99445.50;4995032;28;20057;-85
2024/01/05 08:34:50;;;;;;;0.87;0.60;;;;;;;6.08;100.00;99447.34;4995389;28;20030;-85
2024/01/05 08:37:18;;;;;;;1.50;1.00;;;;;;;6.09;100.00;99444.72;4995456;28;20034;-86
2024/01/05 08:39:49;;;;;;;0.57;0.57;;;;;;;5.94;100.00;99440.69;4993454;28;20173;-87
2024/01/05 08:42:25;;;;;;;0.45;0.45;;;;;;;5.90;100.00;99431.31;4995960;28;20027;-87
2024/01/05 08:48:01;;;;;;;0.90;0.52;;;;;;;5.83;100.00;99445.19;4982536;28;20057;-89
2024/01/05 08:50:26;;;;;;;1.65;0.60;;;;;;;5.83;100.00;99438.31;4995444;28;20030;-84
2024/01/05 08:53:04;;;;;;;2.33;0.90;;;;;;;5.75;100.00;99437.59;4996143;28;20028;-87
2024/01/05 08:55:30;;;;;;;0.80;0.80;;;;;;;5.68;100.00;99448.91;4996554;28;20037;-86
2024/01/05 08:57:55;;;;;;;0.60;0.60;;;;;;;5.68;100.00;99456.63;4994682;28;20121;-86
2024/01/05 09:00:29;;;;;;;0.65;0.55;;;;;;;5.53;100.00;99449.97;4994582;28;20475;-86
2024/01/05 09:03:10;;;;;;;0.57;0.57;;;;;;;5.53;100.00;99456.00;4994744;28;20026;-86
2024/01/05 09:05:35;;;;;;;0.57;0.57;;;;;;;5.49;100.00;99474.09;4994812;28;20030;-86
2024/01/05 09:08:06;;;;;;;0.50;0.50;;;;;;;5.39;100.00;99484.53;4994081;28;20106;-84
2024/01/05 09:10:40;;;;;;;1.95;0.60;;;;;;;5.22;100.00;99469.38;4981777;28;20045;-86
2024/01/05 09:13:14;;;;;;;2.13;0.73;;;;;;;5.15;100.00;99465.16;4975335;28;20043;-87
2024/01/05 09:15:40;;;;;;;0.50;0.50;;;;;;;5.14;100.00;99472.91;4974625;28;20035;-84
2024/01/05 09:18:05;;;;;;;0.77;0.30;;;;;;;5.13;100.00;99472.06;4973861;28;20053;-85
2024/01/05 09:20:31;;;;;;;0.40;0.40;;;;;;;5.15;100.00;99475.47;4975118;28;20034;-89
2024/01/05 09:23:03;;;;;;;0.40;0.40;;;;;;;5.08;100.00;99474.69;4974992;28;20022;-87
2024/01/05 09:25:30;;;;;;;0.60;0.50;;;;;;;5.14;100.00;99488.34;4974969;28;20030;-86
2024/01/05 09:27:55;;;;;;;1.05;0.70;;;;;;;5.16;100.00;99492.59;4992126;23;20137;-85
2024/01/05 09:30:21;;;;;;;0.73;0.73;;;;;;;4.96;100.00;99485.16;4993781;28;20081;-85
2024/01/05 09:32:46;;;;;;;1.00;0.90;;;;;;;4.97;100.00;99470.59;4994413;28;20121;-84
2024/01/05 09:35:11;;;;;;;1.85;1.65;;;;;;;5.04;100.00;99490.19;4994499;28;20038;-82
2024/01/05 09:37:43;;;;;;;2.90;1.17;;;;;;;4.97;100.00;99474.00;5016954;23;20073;-84
2024/01/05 09:40:10;;;;;;;1.02;0.93;;;;;;;5.03;100.00;99484.22;5009222;28;20080;-84
2024/01/05 09:43:02;;;;;;;3.38;1.08;;;;;;;4.94;100.00;99476.63;5011694;28;20041;-81
2024/01/05 09:45:54;;;;;;;1.17;1.05;;;;;;;5.03;100.00;99494.50;5013729;28;20018;-82
2024/01/05 09:48:21;;;;;;;0.80;0.80;;;;;;;4.94;100.00;99474.91;5013509;28;20034;-83
2024/01/05 09:51:20;;;;;;;0.88;0.88;;;;;;;5.13;100.00;99502.91;5012901;28;20057;-83
2024/01/05 09:54:02;;;;;;;2.78;1.00;;;;;;;4.98;100.00;99483.41;5013432;28;20022;-82
2024/01/05 09:56:46;;;;;;;1.45;1.00;;;;;;;5.03;100.00;99494.50;5009110;28;20076;-82
2024/01/05 09:59:30;;;;;;;1.77;0.90;;;;;;;5.04;100.00;99483.34;5000563;28;20026;-82
2024/01/05 10:02:36;;;;;;;1.65;1.30;;;;;;;5.21;100.00;99510.53;5012449;28;20070;-82
2024/01/05 10:05:01;;;;;;;1.33;1.10;;;;;;;5.12;100.00;99487.50;5007537;28;20041;-82
2024/01/05 10:07:58;;;;;;;2.50;1.37;;;;;;;5.27;100.00;99505.31;5007599;28;20026;-82
2024/01/05 10:10:59;;;;;;;2.35;1.50;;;;;;;5.35;100.00;99507.75;5010967;28;20026;-83
2024/01/05 10:13:25;;;;;;;2.42;1.60;;;;;;;5.37;100.00;99496.56;4980888;23;20059;-83
2024/01/05 10:16:02;;;;;;;3.30;1.80;;;;;;;5.38;100.00;99498.28;4954873;29;20126;-83
2024/01/05 10:18:28;;;;;;;2.15;1.52;;;;;;;5.53;100.00;99502.31;4954179;29;20101;-82
2024/01/05 10:20:55;;;;;;;2.97;1.40;;;;;;;5.48;100.00;99501.53;4954826;28;20433;-82
2024/01/05 10:23:21;;;;;;;2.80;1.65;;;;;;;5.45;100.00;99481.00;5017476;23;20049;-85
2024/01/05 10:25:55;;;;;;;1.80;1.58;;;;;;;5.42;100.00;99470.75;5012012;28;20516;-84
2024/01/05 10:31:19;;;;;;;2.67;1.65;;;;;;;5.54;100.00;99474.84;4967069;28;20037;-83
2024/01/05 10:34:15;;;;;;;2.00;1.70;;;;;;;5.73;100.00;99503.72;5012445;28;20022;-84
2024/01/05 10:36:59;;;;;;;;;;;;;;;5.80;100.00;99494.16;5008697;28;20033;-83
2024/01/05 10:39:51;;;;;;;3.60;1.90;;;;;;;5.79;100.00;99503.63;5011892;28;20346;-83
2024/01/05 10:42:35;;;;;;;2.20;1.70;;;;;;;5.71;100.00;99480.56;5012875;28;20060;-84
2024/01/05 10:45:01;;;;;;;1.70;1.60;;;;;;;5.72;100.00;99481.41;5013246;28;20034;-83
2024/01/05 10:47:36;;;;;;;2.30;1.60;;;;;;;5.77;100.00;99496.78;5012349;28;20034;-83
2024/01/05 10:50:08;;;;;;;2.40;1.70;;;;;;;5.69;100.00;99473.72;5013095;28;20026;-83
2024/01/05 10:52:44;;;;;;;2.25;1.50;;;;;;;5.73;100.00;99488.25;5012953;28;20057;-84
2024/01/05 10:55:10;;;;;;;2.40;1.90;;;;;;;5.85;100.00;99508.66;5013276;28;20037;-84
2024/01/05 10:57:45;;;;;;;1.80;1.70;;;;;;;5.75;100.00;99488.22;5011966;28;20025;-88
2024/01/05 11:00:16;;;;;;;2.28;1.45;;;;;;;5.90;100.00;99498.28;5010336;28;20034;-84
2024/01/05 11:02:48;;;;;;;2.75;1.75;;;;;;;5.88;100.00;99506.03;4978015;23;20106;-83
2024/01/05 11:05:14;;;;;;;2.05;1.60;;;;;;;5.98;100.00;99504.13;4954517;29;20027;-85
2024/01/05 11:07:43;;;;;;;3.63;1.70;;;;;;;5.87;100.00;99509.47;4954340;28;20058;-83
2024/01/05 11:10:30;;;;;;;2.40;1.70;;;;;;;5.85;100.00;99505.25;4953558;29;20039;-85
2024/01/05 11:13:24;;;;;;;1.80;1.70;;;;;;;5.84;100.00;99516.41;4956467;28;20023;-83
2024/01/05 11:16:37;;;;;;;1.58;1.48;;;;;;;5.84;100.00;99506.94;4956920;29;20400;-84
2024/01/05 11:19:40;;;;;;;3.55;1.60;;;;;;;5.83;100.00;99514.72;4873051;29;20514;-82
2024/01/05 11:22:10;;;;;;;1.73;1.60;;;;;;;5.85;100.00;99508.66;4956189;29;20042;-83
2024/01/05 11:24:37;;;;;;;2.08;1.73;;;;;;;5.87;100.00;99506.03;4957095;29;20032;-84
2024/01/05 11:27:43;;;;;;;2.58;1.55;;;;;;;5.83;100.00;99499.25;4957827;29;20030;-82
2024/01/05 11:30:09;;;;;;;1.95;1.60;;;;;;;5.75;100.00;99494.25;4957644;28;20512;-81
2024/01/05 11:32:42;;;;;;;3.13;1.90;;;;;;;5.88;100.00;99502.59;4956494;29;20027;-82
2024/01/05 11:35:16;;;;;;;4.72;1.80;;;;;;;5.88;100.00;99505.16;4956851;28;20424;-85
2024/01/05 11:37:43;;;;;;;2.13;1.63;;;;;;;5.87;100.00;99491.44;4958091;28;20115;-84
2024/01/05 11:40:27;;;;;;;3.47;1.92;;;;;;;5.92;100.00;99496.53;4958074;29;20034;-83
2024/01/05 11:43:19;;;;;;;2.45;1.90;;;;;;;5.97;100.00;99509.31;4956426;29;20035;-83
2024/01/05 11:45:44;;;;;;;2.80;1.88;;;;;;;5.94;100.00;99505.06;4957254;28;20093;-83
2024/01/05 11:48:10;;;;;;;2.97;1.80;;;;;;;5.97;100.00;99494.69;4957838;29;20106;-84